createdAt,value
2023-05-04T00:01:12.990Z,100886.28
2023-05-04T00:04:15.480Z,100883.47
2023-05-04T00:07:17.901Z,100888.09
2023-05-04T00:10:20.316Z,100882.09
2023-05-04T00:13:22.654Z,100890.50
2023-05-04T00:16:25.092Z,100889.72
2023-05-04T00:19:27.445Z,100885.69
2023-05-04T00:22:29.834Z,100877.00
2023-05-04T00:25:32.197Z,100899.09
2023-05-04T00:28:34.580Z,100884.66
2023-05-04T00:31:36.917Z,100889.06
2023-05-04T00:34:39.301Z,100884.16
2023-05-04T00:37:43.791Z,100884.00
2023-05-04T00:40:46.191Z,100871.06
2023-05-04T00:43:48.575Z,100875.69
2023-05-04T00:46:52.740Z,100879.34
2023-05-04T00:49:55.240Z,100888.13
2023-05-04T00:52:59.098Z,100889.94
2023-05-04T00:56:01.940Z,100886.72
2023-05-04T00:59:04.334Z,100893.50
2023-05-04T01:02:06.679Z,100886.78
2023-05-04T01:05:09.568Z,100883.38
2023-05-04T01:08:17.316Z,100889.84
2023-05-04T01:11:46.796Z,100893.66
2023-05-04T01:14:49.111Z,100877.97
2023-05-04T01:17:51.485Z,100889.94
2023-05-04T01:20:53.926Z,100883.41
2023-05-04T01:23:56.504Z,100886.06
2023-05-04T01:27:08.975Z,100886.28
2023-05-04T01:30:15.329Z,100888.97
2023-05-04T01:33:19.910Z,100881.56
2023-05-04T01:36:22.319Z,100891.13
2023-05-04T01:39:24.911Z,100880.13
2023-05-04T01:42:27.309Z,100886.56
2023-05-04T01:45:29.663Z,100881.34
2023-05-04T01:48:32.009Z,100894.16
2023-05-04T01:51:34.366Z,100889.34
2023-05-04T01:54:36.774Z,100892.34
2023-05-04T01:57:39.652Z,100891.56
2023-05-04T02:00:41.981Z,100892.75
2023-05-04T02:03:44.728Z,100896.06
2023-05-04T02:06:48.032Z,100894.03
2023-05-04T02:09:50.450Z,100893.84
2023-05-04T02:12:52.752Z,100888.56
2023-05-04T02:15:55.134Z,100878.31
2023-05-04T02:18:57.547Z,100887.91
2023-05-04T02:21:59.878Z,100888.13
2023-05-04T02:25:02.197Z,100884.56
2023-05-04T02:28:04.632Z,100883.81
2023-05-04T02:31:07.171Z,100874.56
2023-05-04T02:34:10.928Z,100883.09
2023-05-04T02:37:22.420Z,100873.53
2023-05-04T02:40:24.787Z,100896.72
2023-05-04T02:43:27.132Z,100894.97
2023-05-04T02:46:29.518Z,100888.63
2023-05-04T02:49:34.139Z,100898.75
2023-05-04T02:52:36.523Z,100888.94
2023-05-04T02:55:38.888Z,100900.41
2023-05-04T02:58:41.688Z,100905.06
2023-05-04T03:01:44.060Z,100906.44
2023-05-04T03:04:46.496Z,100901.00
2023-05-04T03:07:48.910Z,100915.25
2023-05-04T03:10:51.312Z,100914.84
2023-05-04T03:13:53.642Z,100912.63
2023-05-04T03:16:56.028Z,100909.13
2023-05-04T03:19:58.495Z,100909.94
2023-05-04T03:23:02.867Z,100914.19
2023-05-04T03:26:05.879Z,100919.41
2023-05-04T03:29:08.413Z,100919.19
2023-05-04T03:32:13.222Z,100920.63
2023-05-04T03:35:28.992Z,100900.72
2023-05-04T03:38:32.930Z,100926.84
2023-05-04T03:41:35.358Z,100924.25
2023-05-04T03:44:37.749Z,100911.97
2023-05-04T03:47:40.235Z,100928.69
2023-05-04T03:50:42.653Z,100922.63
2023-05-04T03:53:45.132Z,100927.44
2023-05-04T03:56:49.905Z,100926.59
2023-05-04T03:59:53.963Z,100928.81
2023-05-04T04:02:59.041Z,100936.28
2023-05-04T04:06:03.560Z,100944.28
2023-05-04T04:09:06.088Z,100943.47
2023-05-04T04:12:08.529Z,100939.53
2023-05-04T04:15:11.248Z,100948.06
2023-05-04T04:18:13.591Z,100945.66
2023-05-04T04:21:15.901Z,100943.00
2023-05-04T04:24:18.250Z,100954.22
2023-05-04T04:27:20.716Z,100936.69
2023-05-04T04:30:23.093Z,100952.31
2023-05-04T04:33:25.712Z,100961.72
2023-05-04T04:36:28.018Z,100953.78
2023-05-04T04:39:30.556Z,100954.69
2023-05-04T04:42:33.223Z,100960.69
2023-05-04T04:45:35.845Z,100970.38
2023-05-04T04:48:38.201Z,100977.78
2023-05-04T04:51:43.461Z,100967.28
2023-05-04T04:54:46.731Z,100969.28
2023-05-04T04:57:49.102Z,100987.75
2023-05-04T05:00:52.954Z,100971.63
2023-05-04T05:03:55.350Z,100979.41
2023-05-04T05:06:57.777Z,100964.16
2023-05-04T05:10:00.202Z,100987.06
2023-05-04T05:13:02.679Z,100964.31
2023-05-04T05:16:06.018Z,100995.91
2023-05-04T05:19:08.511Z,100988.47
2023-05-04T05:22:10.880Z,100991.09
2023-05-04T05:25:13.247Z,101003.38
2023-05-04T05:28:15.811Z,101004.13
2023-05-04T05:31:18.315Z,100999.75
2023-05-04T05:34:20.744Z,101013.25
2023-05-04T05:37:23.116Z,101008.81
2023-05-04T05:40:25.497Z,101021.84
2023-05-04T05:43:27.868Z,101018.78
2023-05-04T05:46:30.274Z,101015.00
2023-05-04T05:49:32.662Z,101018.22
2023-05-04T05:52:35.311Z,101008.63
2023-05-04T05:55:37.677Z,101011.81
2023-05-04T05:58:40.052Z,101016.19
2023-05-04T06:01:42.728Z,101017.63
2023-05-04T06:04:45.348Z,101024.66
2023-05-04T06:07:47.790Z,101019.41
2023-05-04T06:10:51.620Z,101026.28
2023-05-04T06:13:54.221Z,101005.19
2023-05-04T06:16:56.875Z,101029.28
2023-05-04T06:19:59.233Z,101037.59
2023-05-04T06:23:01.617Z,101042.38
2023-05-04T06:26:08.026Z,101036.72
2023-05-04T06:29:10.561Z,101053.00
2023-05-04T06:32:13.100Z,101058.03
2023-05-04T06:35:15.510Z,101054.50
2023-05-04T06:38:17.885Z,101055.69
2023-05-04T06:41:20.300Z,101046.31
2023-05-04T06:44:23.005Z,101049.63
2023-05-04T06:47:25.481Z,101049.88
2023-05-04T06:50:28.038Z,101050.13
2023-05-04T06:53:30.387Z,101051.47
2023-05-04T06:56:33.061Z,101057.97
2023-05-04T06:59:35.434Z,101063.00
2023-05-04T07:02:37.968Z,101059.41
2023-05-04T07:05:40.376Z,101055.16
2023-05-04T07:08:42.973Z,101063.41
2023-05-04T07:11:45.447Z,101069.84
2023-05-04T07:14:47.820Z,101067.25
2023-05-04T07:17:50.337Z,101071.28
2023-05-04T07:20:54.300Z,101062.84
2023-05-04T07:24:01.253Z,101066.47
2023-05-04T07:27:03.996Z,101068.91
2023-05-04T07:30:07.429Z,101085.16
2023-05-04T07:33:09.916Z,101070.28
2023-05-04T07:36:12.266Z,101069.69
2023-05-04T07:39:16.545Z,101077.31
2023-05-04T07:42:18.923Z,101071.69
2023-05-04T07:45:21.298Z,101066.03
2023-05-04T07:48:25.984Z,101078.28
2023-05-04T07:51:28.919Z,101061.22
2023-05-04T07:54:31.553Z,101077.25
2023-05-04T07:57:35.892Z,101074.41
2023-05-04T08:00:38.403Z,101077.63
2023-05-04T08:03:40.722Z,101077.25
2023-05-04T08:06:43.083Z,101083.66
2023-05-04T08:09:45.465Z,101084.44
2023-05-04T08:12:47.929Z,101083.38
2023-05-04T08:15:50.279Z,101077.53
2023-05-04T08:18:52.651Z,101087.56
2023-05-04T08:21:55.029Z,101091.38
2023-05-04T08:24:57.767Z,101085.16
2023-05-04T08:28:00.110Z,101096.16
2023-05-04T08:31:04.018Z,101095.53
2023-05-04T08:34:06.476Z,101087.91
2023-05-04T08:37:08.869Z,101097.47
2023-05-04T08:40:12.638Z,101092.22
2023-05-04T08:43:14.957Z,101087.94
2023-05-04T08:46:17.835Z,101087.94
2023-05-04T08:49:20.809Z,101092.59
2023-05-04T08:52:24.709Z,101093.22
2023-05-04T08:55:27.172Z,101090.44
2023-05-04T08:58:29.778Z,101095.25
2023-05-04T09:01:32.609Z,101091.97
2023-05-04T09:04:35.120Z,101092.88
2023-05-04T09:07:37.516Z,101097.09
2023-05-04T09:10:39.899Z,101098.38
2023-05-04T09:13:43.096Z,101094.09
2023-05-04T09:16:45.594Z,101095.47
2023-05-04T09:19:57.564Z,101109.31
2023-05-04T09:23:07.027Z,101102.16
2023-05-04T09:26:09.507Z,101104.88
2023-05-04T09:29:15.279Z,101104.94
2023-05-04T09:32:17.713Z,101110.09
2023-05-04T09:35:33.618Z,101104.94
2023-05-04T09:38:37.002Z,101105.41
2023-05-04T09:41:39.483Z,101105.03
2023-05-04T09:44:41.854Z,101110.19
2023-05-04T09:47:44.934Z,101100.47
2023-05-04T09:50:53.950Z,101105.94
2023-05-04T09:53:56.313Z,101102.53
2023-05-04T09:57:23.000Z,101106.59
2023-05-04T10:00:25.586Z,101100.31
2023-05-04T10:03:31.344Z,101096.75
2023-05-04T10:06:33.707Z,101083.53
2023-05-04T10:09:36.082Z,101088.50
2023-05-04T10:12:38.436Z,101082.56
2023-05-04T10:15:58.974Z,101072.53
2023-05-04T10:19:26.929Z,101060.94
2023-05-04T10:23:01.463Z,101073.13
2023-05-04T10:26:22.512Z,101066.97
2023-05-04T10:29:28.845Z,101058.50
2023-05-04T10:32:31.742Z,101047.06
2023-05-04T10:35:34.096Z,101047.94
2023-05-04T10:38:37.900Z,101048.13
2023-05-04T10:41:41.622Z,101043.72
2023-05-04T10:44:55.380Z,101047.03
2023-05-04T10:47:58.681Z,101024.22
2023-05-04T10:51:01.150Z,101049.91
2023-05-04T10:54:03.517Z,101048.00
2023-05-04T10:57:13.639Z,101051.47
2023-05-04T11:00:16.355Z,101042.19
2023-05-04T11:03:19.592Z,101028.44
2023-05-04T11:06:24.038Z,101032.50
2023-05-04T11:09:28.391Z,101032.13
2023-05-04T11:12:34.107Z,101023.56
2023-05-04T11:15:45.125Z,101024.25
2023-05-04T11:18:47.496Z,101026.66
2023-05-04T11:21:49.880Z,101024.69
2023-05-04T11:24:53.664Z,101013.41
2023-05-04T11:27:57.297Z,101002.72
2023-05-04T11:30:59.764Z,101000.06
2023-05-04T11:34:02.552Z,100993.69
2023-05-04T11:37:06.472Z,100993.56
2023-05-04T11:40:17.653Z,100989.19
2023-05-04T11:43:20.036Z,100986.72
2023-05-04T11:46:22.496Z,100981.25
2023-05-04T11:49:26.918Z,100986.16
2023-05-04T11:52:30.847Z,100976.59
2023-05-04T11:55:33.308Z,100975.81
2023-05-04T11:58:35.785Z,100973.09
2023-05-04T12:01:38.161Z,100963.56
2023-05-04T12:04:40.533Z,100964.75
2023-05-04T12:07:42.906Z,100952.28
2023-05-04T12:10:45.282Z,100962.94
2023-05-04T12:13:48.711Z,100955.16
2023-05-04T12:16:55.040Z,100950.06
2023-05-04T12:19:57.531Z,100935.53
2023-05-04T12:23:05.948Z,100943.50
2023-05-04T12:26:08.948Z,100949.16
2023-05-04T12:29:11.358Z,100947.59
2023-05-04T12:32:13.736Z,100948.53
2023-05-04T12:35:17.082Z,100938.94
2023-05-04T12:38:19.458Z,100939.53
2023-05-04T12:41:21.868Z,100937.88
2023-05-04T12:44:25.027Z,100928.06
2023-05-04T12:47:27.426Z,100927.31
2023-05-04T12:50:29.892Z,100926.50
2023-05-04T12:53:32.668Z,100915.25
2023-05-04T12:56:35.142Z,100906.44
2023-05-04T12:59:37.623Z,100910.31
2023-05-04T13:02:40.071Z,100904.66
2023-05-04T13:05:43.199Z,100879.09
2023-05-04T13:08:47.247Z,100893.25
2023-05-04T13:11:50.001Z,100886.41
2023-05-04T13:14:55.562Z,100888.84
2023-05-04T13:17:58.052Z,100891.22
2023-05-04T13:21:00.803Z,100893.91
2023-05-04T13:24:03.181Z,100877.41
2023-05-04T13:27:05.763Z,100880.09
2023-05-04T13:30:09.137Z,100879.56
2023-05-04T13:33:27.377Z,100867.88
2023-05-04T13:36:32.345Z,100870.81
2023-05-04T13:39:41.240Z,100866.84
2023-05-04T13:42:43.851Z,100859.38
2023-05-04T13:45:46.347Z,100862.03
2023-05-04T13:48:48.708Z,100866.56
2023-05-04T13:51:51.088Z,100855.13
2023-05-04T13:54:53.658Z,100859.38
2023-05-04T13:57:56.035Z,100851.13
2023-05-04T14:01:00.631Z,100858.06
2023-05-04T14:04:03.247Z,100845.31
2023-05-04T14:07:05.663Z,100839.19
2023-05-04T14:10:08.611Z,100842.97
2023-05-04T14:13:11.097Z,100843.44
2023-05-04T14:16:13.624Z,100834.53
2023-05-04T14:19:16.025Z,100833.84
2023-05-04T14:22:18.398Z,100843.75
2023-05-04T14:25:22.437Z,100842.13
2023-05-04T14:28:24.889Z,100855.16
2023-05-04T14:31:27.368Z,100855.41
2023-05-04T14:34:29.754Z,100856.41
2023-05-04T14:37:32.126Z,100853.75
2023-05-04T14:40:34.538Z,100850.91
2023-05-04T14:43:37.081Z,100849.53
2023-05-04T14:46:39.446Z,100852.31
2023-05-04T14:49:43.069Z,100844.19
2023-05-04T14:52:45.438Z,100836.00
2023-05-04T14:55:48.173Z,100851.31
2023-05-04T14:58:50.630Z,100851.72
2023-05-04T15:01:55.239Z,100847.69
2023-05-04T15:04:58.201Z,100854.22
2023-05-04T15:08:00.980Z,100845.66
2023-05-04T15:11:03.788Z,100850.63
2023-05-04T15:14:06.248Z,100839.66
2023-05-04T15:17:08.724Z,100843.38
2023-05-04T15:20:11.744Z,100846.34
2023-05-04T15:23:14.189Z,100835.75
2023-05-04T15:26:17.600Z,100840.25
2023-05-04T15:29:20.257Z,100832.56
2023-05-04T15:32:22.711Z,100840.47
2023-05-04T15:35:25.224Z,100824.94
2023-05-04T15:38:28.734Z,100832.69
2023-05-04T15:41:33.776Z,100827.28
2023-05-04T15:44:36.651Z,100834.53
2023-05-04T15:47:39.171Z,100832.38
2023-05-04T15:50:41.611Z,100826.56
2023-05-04T15:53:44.080Z,100820.22
2023-05-04T15:56:46.453Z,100823.66
2023-05-04T15:59:49.961Z,100821.03
2023-05-04T16:02:53.181Z,100822.22
2023-05-04T16:05:56.094Z,100822.09
2023-05-04T16:08:58.600Z,100797.44
2023-05-04T16:12:02.384Z,100806.34
2023-05-04T16:15:05.858Z,100791.16
2023-05-04T16:18:08.333Z,100815.34
2023-05-04T16:21:10.882Z,100822.81
2023-05-04T16:24:13.737Z,100815.03
2023-05-04T16:27:16.526Z,100811.31
2023-05-04T16:30:18.999Z,100825.41
2023-05-04T16:33:21.446Z,100820.25
2023-05-04T16:36:23.812Z,100829.16
2023-05-04T16:39:34.368Z,100821.97
2023-05-04T16:42:36.796Z,100802.97
2023-05-04T16:45:39.174Z,100812.25
2023-05-04T16:48:42.367Z,100825.91
2023-05-04T16:51:44.707Z,100831.97
2023-05-04T16:54:47.331Z,100834.13
2023-05-04T16:57:49.839Z,100833.72
2023-05-04T17:00:52.398Z,100841.81
2023-05-04T17:03:54.889Z,100840.13
2023-05-04T17:06:57.534Z,100844.84
2023-05-04T17:10:00.011Z,100843.09
2023-05-04T17:13:02.990Z,100844.34
2023-05-04T17:16:06.455Z,100835.13
2023-05-04T17:19:10.916Z,100848.09
2023-05-04T17:22:13.716Z,100850.56
2023-05-04T17:25:16.600Z,100856.19
2023-05-04T17:28:18.945Z,100863.06
2023-05-04T17:31:21.377Z,100862.22
2023-05-04T17:34:23.821Z,100862.94
2023-05-04T17:37:27.044Z,100859.78
2023-05-04T17:40:29.597Z,100863.63
2023-05-04T17:43:34.419Z,100863.09
2023-05-04T17:46:36.982Z,100874.53
2023-05-04T17:49:39.444Z,100869.97
2023-05-04T17:52:41.908Z,100872.28
2023-05-04T17:55:44.435Z,100873.78
2023-05-04T17:58:46.829Z,100883.41
2023-05-04T18:01:49.425Z,100871.63
2023-05-04T18:04:52.081Z,100883.63
2023-05-04T18:07:54.459Z,100884.78
2023-05-04T18:10:56.822Z,100885.84
2023-05-04T18:13:59.406Z,100896.81
2023-05-04T18:17:02.111Z,100896.22
2023-05-04T18:20:07.279Z,100902.41
2023-05-04T18:23:10.096Z,100906.63
2023-05-04T18:26:19.922Z,100900.00
2023-05-04T18:29:22.343Z,100910.09
2023-05-04T18:32:24.736Z,100908.38
2023-05-04T18:35:27.097Z,100919.19
2023-05-04T18:38:30.696Z,100918.06
2023-05-04T18:41:33.074Z,100926.78
2023-05-04T18:44:53.926Z,100920.25
2023-05-04T18:47:56.400Z,100934.91
2023-05-04T18:50:59.027Z,100941.50
2023-05-04T18:54:01.412Z,100940.56
2023-05-04T18:57:04.387Z,100942.59
2023-05-04T19:00:07.934Z,100945.09
2023-05-04T19:03:10.794Z,100937.78
2023-05-04T19:06:13.769Z,100942.31
2023-05-04T19:09:16.153Z,100948.19
2023-05-04T19:12:19.204Z,100936.75
2023-05-04T19:15:23.456Z,100944.69
2023-05-04T19:18:26.114Z,100947.06
2023-05-04T19:21:28.776Z,100954.56
2023-05-04T19:24:32.216Z,100946.59
2023-05-04T19:27:34.600Z,100948.09
2023-05-04T19:30:37.291Z,100953.69
2023-05-04T19:33:48.003Z,100959.53
2023-05-04T19:36:52.061Z,100960.38
2023-05-04T19:39:54.847Z,100945.91
2023-05-04T19:42:57.259Z,100949.78
2023-05-04T19:46:01.545Z,100960.38
2023-05-04T19:49:04.835Z,100960.06
2023-05-04T19:52:07.312Z,100943.13
2023-05-04T19:55:10.409Z,100967.69
2023-05-04T19:58:12.732Z,100957.44
2023-05-04T20:01:15.342Z,100964.94
2023-05-04T20:04:18.883Z,100954.69
2023-05-04T20:07:21.442Z,100962.13
2023-05-04T20:10:24.079Z,100968.59
2023-05-04T20:13:26.900Z,100956.19
2023-05-04T20:16:29.300Z,100960.41
2023-05-04T20:19:31.854Z,100947.38
2023-05-04T20:22:34.227Z,100958.84
2023-05-04T20:25:36.923Z,100964.69
2023-05-04T20:28:39.386Z,100961.69
2023-05-04T20:31:41.892Z,100936.16
2023-05-04T20:34:46.082Z,100976.56
2023-05-04T20:37:48.714Z,100977.97
2023-05-04T20:40:52.473Z,100980.38
2023-05-04T20:43:55.166Z,100972.13
2023-05-04T20:46:57.741Z,100970.94
2023-05-04T20:50:00.299Z,100972.75
2023-05-04T20:53:03.213Z,100965.75
2023-05-04T20:56:06.904Z,100970.56
2023-05-04T20:59:09.386Z,100964.34
2023-05-04T21:02:12.192Z,100968.34
2023-05-04T21:05:14.644Z,100965.72
2023-05-04T21:08:17.533Z,100939.41
2023-05-04T21:11:20.014Z,100966.13
2023-05-04T21:14:22.588Z,100958.72
2023-05-04T21:17:25.964Z,100965.13
2023-05-04T21:20:28.361Z,100955.09
2023-05-04T21:23:31.759Z,100974.59
2023-05-04T21:26:34.341Z,100970.16
2023-05-04T21:29:36.816Z,100971.38
2023-05-04T21:32:39.320Z,100969.94
2023-05-04T21:35:41.877Z,100955.84
2023-05-04T21:38:44.397Z,100964.28
2023-05-04T21:41:46.833Z,100973.16
2023-05-04T21:44:59.239Z,100974.59
2023-05-04T21:48:03.818Z,100967.56
2023-05-04T21:51:06.648Z,100973.38
2023-05-04T21:54:09.025Z,100979.59
2023-05-04T21:57:11.604Z,100978.22
2023-05-04T22:00:18.097Z,100939.38
2023-05-04T22:03:21.329Z,100973.56
2023-05-04T22:06:24.706Z,100964.47
2023-05-04T22:09:27.757Z,100977.56
2023-05-04T22:12:30.378Z,100963.25
2023-05-04T22:15:46.379Z,100975.72
2023-05-04T22:18:51.787Z,100974.25
2023-05-04T22:21:54.332Z,100969.59
2023-05-04T22:24:57.207Z,100961.75
2023-05-04T22:27:59.930Z,100972.59
2023-05-04T22:31:02.668Z,100973.19
2023-05-04T22:34:05.809Z,100966.09
2023-05-04T22:37:08.380Z,100966.13
2023-05-04T22:40:11.275Z,100958.50
2023-05-04T22:43:13.709Z,100960.94
2023-05-04T22:46:17.115Z,100960.16
2023-05-04T22:49:20.051Z,100954.53
2023-05-04T22:52:23.263Z,100957.53
2023-05-04T22:55:25.812Z,100959.72
2023-05-04T22:58:28.389Z,100955.91
2023-05-04T23:01:30.997Z,100952.53
2023-05-04T23:04:33.451Z,100948.25
2023-05-04T23:07:36.064Z,100954.25
2023-05-04T23:10:38.502Z,100949.19
2023-05-04T23:13:41.797Z,100951.91
2023-05-04T23:16:44.269Z,100947.47
2023-05-04T23:19:46.956Z,100953.53
2023-05-04T23:22:49.406Z,100955.13
2023-05-04T23:25:52.022Z,100946.97
2023-05-04T23:28:54.897Z,100946.63
2023-05-04T23:31:57.873Z,100932.16
2023-05-04T23:35:00.781Z,100926.69
2023-05-04T23:38:04.069Z,100902.44
2023-05-04T23:41:06.650Z,100927.13
2023-05-04T23:44:09.029Z,100933.28
2023-05-04T23:47:11.511Z,100927.66
2023-05-04T23:50:14.494Z,100930.47
2023-05-04T23:53:17.283Z,100935.50
2023-05-04T23:56:20.365Z,100933.91
2023-05-04T23:59:22.926Z,100926.69
